3b Spirit — 9HA2525 — position and weather

sailwx.info

Track history (hours):
 
Tides and Currents Weather Stations Pressure Air Temp Water Temp Dewpoint Dewpoint Depression Visibility Wind Speed Wind Dir Waves Ship Positions

3b Spirit

Last reported at 2018-Jan-12 14:39 UTC. Time now 2018-Jan-22 06:41 UTC.
Position N 35°50' E 014°36'.
Warning: this ship's position is 9 days out of date.

Length 106 m; draft 6.2 m.

Type: Ship. MMSI: 248816000.

Date/timePositionNaut miles runAvg speedWind from/ knotsBaromVisibWave heightAir tempDewpointWater temp
2018-Jan-12 14:39N 35°50' E 014°36'0 0.1
2018-Jan-12 14:23N 35°50' E 014°36'0 0.0
2018-Jan-12 14:00N 35°50' E 014°36'0 0.0
2018-Jan-12 13:30N 35°50' E 014°36'0 0.3
2018-Jan-12 12:59N 35°50' E 014°36'3 5.8
2018-Jan-12 12:30N 35°50' E 014°39'610.6
2018-Jan-12 11:57N 35°53' E 014°45'5 1.1
2018-Jan-12 07:33N 35°51' E 014°51'112.7
2018-Jan-12 07:29N 35°51' E 014°50'2011.9
2018-Jan-12 05:50N 35°42' E 014°28'412.0
2018-Jan-12 05:30N 35°42' E 014°23'612.0
2018-Jan-12 04:59N 35°43' E 014°15'612.3
2018-Jan-12 04:30N 35°43' E 014°08'42 0.8
2018-Jan-10 02:20N 36°19' E 013°43'412.9
2018-Jan-10 02:00N 36°20' E 013°48'612.2
2018-Jan-10 01:30N 36°21' E 013°56'612.6
2018-Jan-10 01:01N 36°22' E 014°03'612.4
2018-Jan-10 00:30N 36°24' E 014°11'612.0
2018-Jan-09 23:59N 36°25' E 014°18'612.1
2018-Jan-09 23:30N 36°26' E 014°25'612.2
2018-Jan-09 23:00N 36°27' E 014°33'  
2018-Jan-07 05:29N 36°35' E 014°53'813.6
2018-Jan-07 04:56N 36°36' E 014°43'1213.0
2018-Jan-07 04:00N 36°38' E 014°29'813.0
2018-Jan-07 03:23N 36°40' E 014°19'513.1
2018-Jan-07 02:59N 36°41' E 014°13'613.1
2018-Jan-07 02:30N 36°43' E 014°05'713.0
2018-Jan-07 02:00N 36°45' E 013°57'2913.1
2018-Jan-06 23:44N 36°52' E 013°22'313.3
2018-Jan-06 23:30N 36°53' E 013°18'713.3
2018-Jan-06 23:00N 36°55' E 013°10'713.5
2018-Jan-06 22:28N 36°57' E 013°01'613.5
2018-Jan-06 22:00N 36°58' E 012°53'613.1
2018-Jan-06 21:30N 36°60' E 012°46'612.9
2018-Jan-06 21:00N 37°01' E 012°38'612.9
2018-Jan-06 20:30N 37°03' E 012°30'712.7
2018-Jan-06 19:59N 37°05' E 012°22'612.6
2018-Jan-06 19:30N 37°06' E 012°15'612.7
2018-Jan-06 18:59N 37°08' E 012°07'612.6
2018-Jan-06 18:30N 37°09' E 011°59'612.4
2018-Jan-06 18:00N 37°11' E 011°52'612.6
2018-Jan-06 17:30N 37°12' E 011°44'712.9
2018-Jan-06 16:57N 37°14' E 011°35'1413.0
2018-Jan-06 15:50N 37°18' E 011°18'31413.8
2018-Jan-05 17:08N 37°10' E 004°43'214.5
2018-Jan-05 17:00N 37°09' E 004°41'714.6
2018-Jan-05 16:30N 37°09' E 004°32'714.5
2018-Jan-05 16:00N 37°08' E 004°23'  
Track history (hours):
 
Tides and Currents Weather Stations Pressure Air Temp Water Temp Dewpoint Dewpoint Depression Visibility Wind Speed Wind Dir Waves Ship Positions

3b Spirit

Last reported at 2018-Jan-12 14:39 UTC. Time now 2018-Jan-22 06:41 UTC.
Position N 35°50' E 014°36'.
Warning: this ship's position is 9 days out of date.

Length 106 m; draft 6.2 m.

Type: Ship. MMSI: 248816000.

Date/timePositionNaut miles runAvg speedWind from/ knotsBaromVisibWave heightAir tempDewpointWater temp
2018-Jan-12 14:39N 35°50' E 014°36'0 0.1
2018-Jan-12 14:23N 35°50' E 014°36'0 0.0
2018-Jan-12 14:00N 35°50' E 014°36'0 0.0
2018-Jan-12 13:30N 35°50' E 014°36'0 0.3
2018-Jan-12 12:59N 35°50' E 014°36'3 5.8
2018-Jan-12 12:30N 35°50' E 014°39'610.6
2018-Jan-12 11:57N 35°53' E 014°45'5 1.1
2018-Jan-12 07:33N 35°51' E 014°51'112.7
2018-Jan-12 07:29N 35°51' E 014°50'2011.9
2018-Jan-12 05:50N 35°42' E 014°28'412.0
2018-Jan-12 05:30N 35°42' E 014°23'612.0
2018-Jan-12 04:59N 35°43' E 014°15'612.3
2018-Jan-12 04:30N 35°43' E 014°08'42 0.8
2018-Jan-10 02:20N 36°19' E 013°43'412.9
2018-Jan-10 02:00N 36°20' E 013°48'612.2
2018-Jan-10 01:30N 36°21' E 013°56'612.6
2018-Jan-10 01:01N 36°22' E 014°03'612.4
2018-Jan-10 00:30N 36°24' E 014°11'612.0
2018-Jan-09 23:59N 36°25' E 014°18'612.1
2018-Jan-09 23:30N 36°26' E 014°25'612.2
2018-Jan-09 23:00N 36°27' E 014°33'  
2018-Jan-07 05:29N 36°35' E 014°53'813.6
2018-Jan-07 04:56N 36°36' E 014°43'1213.0
2018-Jan-07 04:00N 36°38' E 014°29'813.0
2018-Jan-07 03:23N 36°40' E 014°19'513.1
2018-Jan-07 02:59N 36°41' E 014°13'613.1
2018-Jan-07 02:30N 36°43' E 014°05'713.0
2018-Jan-07 02:00N 36°45' E 013°57'2913.1
2018-Jan-06 23:44N 36°52' E 013°22'313.3
2018-Jan-06 23:30N 36°53' E 013°18'713.3
2018-Jan-06 23:00N 36°55' E 013°10'713.5
2018-Jan-06 22:28N 36°57' E 013°01'613.5
2018-Jan-06 22:00N 36°58' E 012°53'613.1
2018-Jan-06 21:30N 36°60' E 012°46'612.9
2018-Jan-06 21:00N 37°01' E 012°38'612.9
2018-Jan-06 20:30N 37°03' E 012°30'712.7
2018-Jan-06 19:59N 37°05' E 012°22'612.6
2018-Jan-06 19:30N 37°06' E 012°15'612.7
2018-Jan-06 18:59N 37°08' E 012°07'612.6
2018-Jan-06 18:30N 37°09' E 011°59'612.4
2018-Jan-06 18:00N 37°11' E 011°52'612.6
2018-Jan-06 17:30N 37°12' E 011°44'712.9
2018-Jan-06 16:57N 37°14' E 011°35'1413.0
2018-Jan-06 15:50N 37°18' E 011°18'31413.8
2018-Jan-05 17:08N 37°10' E 004°43'214.5
2018-Jan-05 17:00N 37°09' E 004°41'714.6
2018-Jan-05 16:30N 37°09' E 004°32'714.5
2018-Jan-05 16:00N 37°08' E 004°23'  

Dump ship's entire track history